Reklama

Seznam meteostanic a jejich METAR

Vyhledat místa podle abecedy:
A B C D E F G H I J K L M N O P Q R S T U V W X Y Z

Filtrovat:

ID stanice:
a/nebo
Název místa (fulltext):
 
Místo (ID)Naposledy načteno 
Vagar (EKVG) 05.12.2019 23:50 UTC Zobrazit METAR
EKVG 052350Z AUTO 30009KT 9999 BKN040/// 04/M02 Q0984
Valencia (LEVC) 06.12.2019 00:00 UTC Zobrazit METAR
LEVC 060000Z 31005KT 9999 SCT020 BKN025 12/11 Q1022 NOSIG
Varna (LBWN) 06.12.2019 00:00 UTC Zobrazit METAR
LBWN 060000Z 34003KT CAVOK M01/M02 Q1029 NOSIG
Verona (LIPX) 05.12.2019 23:50 UTC Zobrazit METAR
LIPX 052350Z 33002KT CAVOK M00/M01 Q1026
Vienna (LOWW) 05.12.2019 23:50 UTC Zobrazit METAR
LOWW 052350Z 14007KT 8000 FEW010 BKN012 M01/M03 Q1024 BECMG FEW006 OVC008
Vientiane (VLVT) 06.12.2019 00:00 UTC Zobrazit METAR
VLVT 060000Z 22002KT 5000 BR FEW200 10/09 Q1022 NOSIG
Vieuxfort (TLPL) 06.12.2019 00:00 UTC Zobrazit METAR
TLPL 060000Z 10018KT 9999 SCT024 28/23 Q1014 NOSIG
Vilnius (EYVI) 05.12.2019 23:50 UTC Zobrazit METAR
EYVI 052350Z 20011KT 8000 BKN039 M01/M03 Q1012 R19/2///95 NOSIG
Vitebsk (UMII) Zatím nenačteno  
Volgograd (URWW) Zatím nenačteno  
Voronezh (UUOO) Zatím nenačteno  
Reklama

Počasí na Váš email

Emaily jsou bez reklamy a bez spamu



Odhlásit newsletter

Reklama


Lunární kalendář

  • 12.12.
  • 19.12.
  • 26.12.
  • 03.01.



Reklama


Reklama
Povinné ručení
Reklama



Reklama